sensor_id;sensor_type;location;lat;lon;timestamp;temperature;humidity
25024;DHT22;13033;50.936;5.334;2023-07-20T00:01:23;17.90;99.90
25024;DHT22;13033;50.936;5.334;2023-07-20T00:03:49;17.70;99.90
25024;DHT22;13033;50.936;5.334;2023-07-20T00:06:21;17.50;99.90
25024;DHT22;13033;50.936;5.334;2023-07-20T00:08:46;17.70;99.90
25024;DHT22;13033;50.936;5.334;2023-07-20T00:11:12;17.60;99.90
25024;DHT22;13033;50.936;5.334;2023-07-20T00:13:39;17.70;99.90
25024;DHT22;13033;50.936;5.334;2023-07-20T00:16:05;17.70;99.90
25024;DHT22;13033;50.936;5.334;2023-07-20T00:18:30;17.60;99.90
25024;DHT22;13033;50.936;5.334;2023-07-20T00:20:56;17.50;99.90
25024;DHT22;13033;50.936;5.334;2023-07-20T00:23:21;17.50;99.90
25024;DHT22;13033;50.936;5.334;2023-07-20T00:25:48;17.40;99.90
25024;DHT22;13033;50.936;5.334;2023-07-20T00:28:14;17.30;99.90
25024;DHT22;13033;50.936;5.334;2023-07-20T00:30:40;17.20;99.90
25024;DHT22;13033;50.936;5.334;2023-07-20T00:33:10;17.20;99.90
25024;DHT22;13033;50.936;5.334;2023-07-20T00:35:36;17.30;99.90
25024;DHT22;13033;50.936;5.334;2023-07-20T00:38:03;17.50;99.90
25024;DHT22;13033;50.936;5.334;2023-07-20T00:40:38;17.40;99.90
25024;DHT22;13033;50.936;5.334;2023-07-20T00:43:04;17.40;99.90
25024;DHT22;13033;50.936;5.334;2023-07-20T00:45:31;17.40;99.90
25024;DHT22;13033;50.936;5.334;2023-07-20T00:47:57;17.40;99.90
25024;DHT22;13033;50.936;5.334;2023-07-20T00:50:26;17.40;99.90
25024;DHT22;13033;50.936;5.334;2023-07-20T00:52:52;17.40;99.90
25024;DHT22;13033;50.936;5.334;2023-07-20T00:55:19;17.40;99.90
25024;DHT22;13033;50.936;5.334;2023-07-20T00:57:44;17.40;99.90
25024;DHT22;13033;50.936;5.334;2023-07-20T01:00:11;17.50;99.90
25024;DHT22;13033;50.936;5.334;2023-07-20T01:02:37;17.40;99.90
25024;DHT22;13033;50.936;5.334;2023-07-20T01:05:03;17.30;99.90
25024;DHT22;13033;50.936;5.334;2023-07-20T01:07:36;17.30;99.90
25024;DHT22;13033;50.936;5.334;2023-07-20T01:10:25;17.30;99.90
25024;DHT22;13033;50.936;5.334;2023-07-20T01:12:55;17.30;99.90
25024;DHT22;13033;50.936;5.334;2023-07-20T01:15:21;17.40;99.90
25024;DHT22;13033;50.936;5.334;2023-07-20T01:17:46;17.40;99.90
25024;DHT22;13033;50.936;5.334;2023-07-20T01:20:20;17.30;99.90
25024;DHT22;13033;50.936;5.334;2023-07-20T01:28:54;17.40;99.90
25024;DHT22;13033;50.936;5.334;2023-07-20T01:31:28;17.40;99.90
25024;DHT22;13033;50.936;5.334;2023-07-20T01:33:58;17.60;99.90
25024;DHT22;13033;50.936;5.334;2023-07-20T01:36:28;17.60;99.90
25024;DHT22;13033;50.936;5.334;2023-07-20T01:38:54;17.70;98.50
25024;DHT22;13033;50.936;5.334;2023-07-20T01:41:21;17.70;96.00
25024;DHT22;13033;50.936;5.334;2023-07-20T01:43:47;17.60;97.90
25024;DHT22;13033;50.936;5.334;2023-07-20T01:46:13;17.60;97.20
25024;DHT22;13033;50.936;5.334;2023-07-20T01:48:39;17.60;96.80
25024;DHT22;13033;50.936;5.334;2023-07-20T01:51:05;17.50;97.80
25024;DHT22;13033;50.936;5.334;2023-07-20T01:53:30;17.40;99.40
25024;DHT22;13033;50.936;5.334;2023-07-20T01:55:59;17.40;99.10
25024;DHT22;13033;50.936;5.334;2023-07-20T01:58:25;17.40;99.00
25024;DHT22;13033;50.936;5.334;2023-07-20T02:00:51;17.40;97.40
25024;DHT22;13033;50.936;5.334;2023-07-20T02:03:17;17.30;98.00
25024;DHT22;13033;50.936;5.334;2023-07-20T02:05:43;17.10;99.90
25024;DHT22;13033;50.936;5.334;2023-07-20T02:08:08;17.10;99.90
25024;DHT22;13033;50.936;5.334;2023-07-20T02:10:35;17.10;99.90
25024;DHT22;13033;50.936;5.334;2023-07-20T02:13:01;17.20;99.90
25024;DHT22;13033;50.936;5.334;2023-07-20T02:15:26;17.10;99.90
25024;DHT22;13033;50.936;5.334;2023-07-20T02:17:53;17.10;99.90
25024;DHT22;13033;50.936;5.334;2023-07-20T02:20:18;17.10;99.90
25024;DHT22;13033;50.936;5.334;2023-07-20T02:22:44;17.10;99.70
25024;DHT22;13033;50.936;5.334;2023-07-20T02:25:10;17.10;99.90
25024;DHT22;13033;50.936;5.334;2023-07-20T02:27:37;17.10;99.90
25024;DHT22;13033;50.936;5.334;2023-07-20T02:30:04;17.20;99.90
25024;DHT22;13033;50.936;5.334;2023-07-20T02:32:30;17.00;99.90
25024;DHT22;13033;50.936;5.334;2023-07-20T02:34:57;17.00;99.90
25024;DHT22;13033;50.936;5.334;2023-07-20T02:37:23;16.90;99.90
25024;DHT22;13033;50.936;5.334;2023-07-20T02:39:48;16.90;99.90
25024;DHT22;13033;50.936;5.334;2023-07-20T02:42:14;16.80;99.90
25024;DHT22;13033;50.936;5.334;2023-07-20T02:44:40;16.60;99.90
25024;DHT22;13033;50.936;5.334;2023-07-20T02:47:06;16.60;99.90
25024;DHT22;13033;50.936;5.334;2023-07-20T02:49:31;16.60;99.90
25024;DHT22;13033;50.936;5.334;2023-07-20T02:51:57;16.60;99.90
25024;DHT22;13033;50.936;5.334;2023-07-20T02:54:23;16.70;99.90
25024;DHT22;13033;50.936;5.334;2023-07-20T02:56:48;16.60;99.90
25024;DHT22;13033;50.936;5.334;2023-07-20T02:59:14;16.70;99.90
25024;DHT22;13033;50.936;5.334;2023-07-20T03:01:40;16.60;99.90
25024;DHT22;13033;50.936;5.334;2023-07-20T03:04:07;16.60;99.90
25024;DHT22;13033;50.936;5.334;2023-07-20T03:06:35;16.60;99.90
25024;DHT22;13033;50.936;5.334;2023-07-20T03:09:01;16.60;99.90
25024;DHT22;13033;50.936;5.334;2023-07-20T03:11:27;16.60;99.90
25024;DHT22;13033;50.936;5.334;2023-07-20T03:13:53;16.50;99.90
25024;DHT22;13033;50.936;5.334;2023-07-20T03:16:19;16.60;99.90
25024;DHT22;13033;50.936;5.334;2023-07-20T03:18:45;16.80;99.90
25024;DHT22;13033;50.936;5.334;2023-07-20T03:21:11;16.90;99.90
25024;DHT22;13033;50.936;5.334;2023-07-20T03:23:37;16.80;99.90
25024;DHT22;13033;50.936;5.334;2023-07-20T03:26:03;16.70;99.90
25024;DHT22;13033;50.936;5.334;2023-07-20T03:28:29;16.70;99.90
25024;DHT22;13033;50.936;5.334;2023-07-20T03:30:58;16.80;99.90
25024;DHT22;13033;50.936;5.334;2023-07-20T03:33:29;16.80;99.90
25024;DHT22;13033;50.936;5.334;2023-07-20T03:35:55;16.90;99.90
25024;DHT22;13033;50.936;5.334;2023-07-20T03:38:21;16.90;99.90
25024;DHT22;13033;50.936;5.334;2023-07-20T03:43:16;17.00;99.90
25024;DHT22;13033;50.936;5.334;2023-07-20T03:45:42;17.00;99.90
25024;DHT22;13033;50.936;5.334;2023-07-20T03:48:08;17.10;99.90
25024;DHT22;13033;50.936;5.334;2023-07-20T03:50:34;17.20;99.90
25024;DHT22;13033;50.936;5.334;2023-07-20T03:52:59;17.20;99.90
25024;DHT22;13033;50.936;5.334;2023-07-20T03:55:25;17.20;99.90
25024;DHT22;13033;50.936;5.334;2023-07-20T03:57:51;17.30;98.10
25024;DHT22;13033;50.936;5.334;2023-07-20T04:00:17;17.40;97.40
25024;DHT22;13033;50.936;5.334;2023-07-20T04:02:43;17.20;99.70
25024;DHT22;13033;50.936;5.334;2023-07-20T04:05:10;17.10;99.90
25024;DHT22;13033;50.936;5.334;2023-07-20T04:07:36;17.20;99.30
25024;DHT22;13033;50.936;5.334;2023-07-20T04:10:01;17.20;98.80
25024;DHT22;13033;50.936;5.334;2023-07-20T04:12:27;17.10;99.90
25024;DHT22;13033;50.936;5.334;2023-07-20T04:14:53;17.10;99.90
25024;DHT22;13033;50.936;5.334;2023-07-20T04:17:18;17.20;99.90
25024;DHT22;13033;50.936;5.334;2023-07-20T04:19:44;17.30;99.00
25024;DHT22;13033;50.936;5.334;2023-07-20T04:22:10;17.10;99.90
25024;DHT22;13033;50.936;5.334;2023-07-20T04:24:35;17.00;99.90
25024;DHT22;13033;50.936;5.334;2023-07-20T04:27:01;17.10;99.90
25024;DHT22;13033;50.936;5.334;2023-07-20T04:29:27;17.10;99.90
25024;DHT22;13033;50.936;5.334;2023-07-20T04:31:52;17.00;99.90
25024;DHT22;13033;50.936;5.334;2023-07-20T04:34:18;16.90;99.90
25024;DHT22;13033;50.936;5.334;2023-07-20T04:36:44;17.10;99.90
25024;DHT22;13033;50.936;5.334;2023-07-20T04:39:10;17.20;99.90
25024;DHT22;13033;50.936;5.334;2023-07-20T04:41:35;17.40;99.90
25024;DHT22;13033;50.936;5.334;2023-07-20T04:44:01;17.50;98.30
25024;DHT22;13033;50.936;5.334;2023-07-20T04:46:27;17.40;98.50
25024;DHT22;13033;50.936;5.334;2023-07-20T04:48:52;17.30;99.90
25024;DHT22;13033;50.936;5.334;2023-07-20T04:51:18;17.20;99.90
25024;DHT22;13033;50.936;5.334;2023-07-20T04:53:47;17.20;99.90
25024;DHT22;13033;50.936;5.334;2023-07-20T04:56:13;17.20;99.90
25024;DHT22;13033;50.936;5.334;2023-07-20T04:58:38;17.10;99.90
25024;DHT22;13033;50.936;5.334;2023-07-20T05:01:04;17.20;99.90
25024;DHT22;13033;50.936;5.334;2023-07-20T05:03:30;17.30;99.90
25024;DHT22;13033;50.936;5.334;2023-07-20T05:05:57;17.30;99.90
25024;DHT22;13033;50.936;5.334;2023-07-20T05:08:23;17.30;99.90
25024;DHT22;13033;50.936;5.334;2023-07-20T05:10:48;17.30;99.90
25024;DHT22;13033;50.936;5.334;2023-07-20T05:13:14;17.40;99.90
25024;DHT22;13033;50.936;5.334;2023-07-20T05:15:40;17.50;99.90
25024;DHT22;13033;50.936;5.334;2023-07-20T05:18:05;17.60;99.90
25024;DHT22;13033;50.936;5.334;2023-07-20T05:20:31;17.60;99.90
25024;DHT22;13033;50.936;5.334;2023-07-20T05:22:59;17.60;99.90
25024;DHT22;13033;50.936;5.334;2023-07-20T05:25:25;17.70;98.50
25024;DHT22;13033;50.936;5.334;2023-07-20T05:27:52;17.70;98.60
25024;DHT22;13033;50.936;5.334;2023-07-20T05:30:18;17.70;99.40
25024;DHT22;13033;50.936;5.334;2023-07-20T05:32:44;17.80;98.70
25024;DHT22;13033;50.936;5.334;2023-07-20T05:35:17;17.90;99.10
25024;DHT22;13033;50.936;5.334;2023-07-20T05:37:44;18.20;94.70
25024;DHT22;13033;50.936;5.334;2023-07-20T05:40:10;18.40;86.40
25024;DHT22;13033;50.936;5.334;2023-07-20T05:42:38;18.50;82.00
25024;DHT22;13033;50.936;5.334;2023-07-20T05:45:04;18.60;83.60
25024;DHT22;13033;50.936;5.334;2023-07-20T05:47:29;18.50;85.00
25024;DHT22;13033;50.936;5.334;2023-07-20T05:49:55;18.60;78.00
25024;DHT22;13033;50.936;5.334;2023-07-20T05:52:20;18.60;78.60
25024;DHT22;13033;50.936;5.334;2023-07-20T05:54:46;18.60;81.90
25024;DHT22;13033;50.936;5.334;2023-07-20T05:57:12;18.80;77.60
25024;DHT22;13033;50.936;5.334;2023-07-20T05:59:38;18.90;76.80
25024;DHT22;13033;50.936;5.334;2023-07-20T06:02:06;19.20;60.80
25024;DHT22;13033;50.936;5.334;2023-07-20T06:04:32;19.10;61.50
25024;DHT22;13033;50.936;5.334;2023-07-20T06:06:58;19.30;50.10
25024;DHT22;13033;50.936;5.334;2023-07-20T06:09:23;19.20;48.70
25024;DHT22;13033;50.936;5.334;2023-07-20T06:11:49;19.00;51.60
25024;DHT22;13033;50.936;5.334;2023-07-20T06:14:14;19.10;55.80
25024;DHT22;13033;50.936;5.334;2023-07-20T06:16:40;19.20;50.20
25024;DHT22;13033;50.936;5.334;2023-07-20T06:19:06;18.90;53.40
25024;DHT22;13033;50.936;5.334;2023-07-20T06:21:31;18.70;71.20
25024;DHT22;13033;50.936;5.334;2023-07-20T06:23:57;19.00;65.50
25024;DHT22;13033;50.936;5.334;2023-07-20T06:26:24;19.10;61.10
25024;DHT22;13033;50.936;5.334;2023-07-20T06:28:49;19.30;46.00
25024;DHT22;13033;50.936;5.334;2023-07-20T06:31:16;19.50;42.40
25024;DHT22;13033;50.936;5.334;2023-07-20T06:33:42;19.70;29.70
25024;DHT22;13033;50.936;5.334;2023-07-20T06:36:07;19.80;25.70
25024;DHT22;13033;50.936;5.334;2023-07-20T06:38:33;19.90;12.50
25024;DHT22;13033;50.936;5.334;2023-07-20T06:40:58;19.80;7.40
25024;DHT22;13033;50.936;5.334;2023-07-20T06:43:24;19.40;26.80
25024;DHT22;13033;50.936;5.334;2023-07-20T06:45:53;19.30;31.40
25024;DHT22;13033;50.936;5.334;2023-07-20T06:48:19;19.50;28.00
25024;DHT22;13033;50.936;5.334;2023-07-20T06:50:45;19.60;25.90
25024;DHT22;13033;50.936;5.334;2023-07-20T06:53:10;19.80;18.70
25024;DHT22;13033;50.936;5.334;2023-07-20T06:55:36;19.90;19.50
25024;DHT22;13033;50.936;5.334;2023-07-20T06:58:01;19.90;17.70
25024;DHT22;13033;50.936;5.334;2023-07-20T07:00:28;20.00;12.40
25024;DHT22;13033;50.936;5.334;2023-07-20T07:02:54;20.30;5.30
25024;DHT22;13033;50.936;5.334;2023-07-20T07:05:19;20.50;1.00
25024;DHT22;13033;50.936;5.334;2023-07-20T07:07:45;20.50;1.00
25024;DHT22;13033;50.936;5.334;2023-07-20T07:10:11;20.10;1.00
25024;DHT22;13033;50.936;5.334;2023-07-20T07:12:36;20.20;1.00
25024;DHT22;13033;50.936;5.334;2023-07-20T07:15:03;20.40;1.00
25024;DHT22;13033;50.936;5.334;2023-07-20T07:17:31;20.20;1.00
25024;DHT22;13033;50.936;5.334;2023-07-20T07:19:58;20.70;1.00
25024;DHT22;13033;50.936;5.334;2023-07-20T07:22:24;20.90;1.00
25024;DHT22;13033;50.936;5.334;2023-07-20T07:24:49;20.60;1.00
25024;DHT22;13033;50.936;5.334;2023-07-20T07:27:15;20.80;1.00
25024;DHT22;13033;50.936;5.334;2023-07-20T07:29:44;20.60;1.00
25024;DHT22;13033;50.936;5.334;2023-07-20T07:32:10;20.50;1.00
25024;DHT22;13033;50.936;5.334;2023-07-20T07:34:36;20.70;1.00
25024;DHT22;13033;50.936;5.334;2023-07-20T07:37:03;20.60;1.00
25024;DHT22;13033;50.936;5.334;2023-07-20T07:39:28;20.40;1.00
25024;DHT22;13033;50.936;5.334;2023-07-20T07:41:55;20.60;1.00
25024;DHT22;13033;50.936;5.334;2023-07-20T07:44:21;20.80;1.00
25024;DHT22;13033;50.936;5.334;2023-07-20T07:46:46;20.80;1.00
25024;DHT22;13033;50.936;5.334;2023-07-20T07:49:12;20.80;1.00
25024;DHT22;13033;50.936;5.334;2023-07-20T07:51:38;20.50;1.00
25024;DHT22;13033;50.936;5.334;2023-07-20T07:54:04;20.30;1.00
25024;DHT22;13033;50.936;5.334;2023-07-20T07:56:30;20.30;1.00
25024;DHT22;13033;50.936;5.334;2023-07-20T07:58:55;20.30;1.00
25024;DHT22;13033;50.936;5.334;2023-07-20T08:01:21;20.70;1.00
25024;DHT22;13033;50.936;5.334;2023-07-20T08:03:47;21.00;1.00
25024;DHT22;13033;50.936;5.334;2023-07-20T08:06:13;21.30;1.00
25024;DHT22;13033;50.936;5.334;2023-07-20T08:08:39;21.40;1.00
25024;DHT22;13033;50.936;5.334;2023-07-20T08:11:05;21.70;1.00
25024;DHT22;13033;50.936;5.334;2023-07-20T08:13:31;21.80;1.00
25024;DHT22;13033;50.936;5.334;2023-07-20T08:15:57;21.60;1.00
25024;DHT22;13033;50.936;5.334;2023-07-20T08:18:23;21.70;1.00
25024;DHT22;13033;50.936;5.334;2023-07-20T08:20:48;22.10;1.00
25024;DHT22;13033;50.936;5.334;2023-07-20T08:23:14;22.30;1.00
25024;DHT22;13033;50.936;5.334;2023-07-20T08:25:41;22.20;1.00
25024;DHT22;13033;50.936;5.334;2023-07-20T08:28:18;21.90;1.00
25024;DHT22;13033;50.936;5.334;2023-07-20T08:30:45;21.80;1.00
25024;DHT22;13033;50.936;5.334;2023-07-20T08:33:13;21.70;1.00
25024;DHT22;13033;50.936;5.334;2023-07-20T08:35:39;21.80;1.00
25024;DHT22;13033;50.936;5.334;2023-07-20T08:38:05;21.60;1.00
25024;DHT22;13033;50.936;5.334;2023-07-20T08:40:32;21.70;1.00
25024;DHT22;13033;50.936;5.334;2023-07-20T08:42:59;21.70;1.00
25024;DHT22;13033;50.936;5.334;2023-07-20T08:45:28;21.80;1.00
25024;DHT22;13033;50.936;5.334;2023-07-20T08:47:58;21.90;1.00
25024;DHT22;13033;50.936;5.334;2023-07-20T08:50:27;21.90;1.00
25024;DHT22;13033;50.936;5.334;2023-07-20T08:52:57;21.90;1.00
25024;DHT22;13033;50.936;5.334;2023-07-20T08:55:23;22.30;99.90
25024;DHT22;13033;50.936;5.334;2023-07-20T08:57:57;22.20;99.90
25024;DHT22;13033;50.936;5.334;2023-07-20T09:00:25;22.30;99.90
25024;DHT22;13033;50.936;5.334;2023-07-20T09:02:53;22.40;99.90
25024;DHT22;13033;50.936;5.334;2023-07-20T09:05:22;22.30;99.90
25024;DHT22;13033;50.936;5.334;2023-07-20T09:07:49;22.30;99.90
25024;DHT22;13033;50.936;5.334;2023-07-20T09:10:14;22.40;99.90
25024;DHT22;13033;50.936;5.334;2023-07-20T09:12:42;22.10;99.90
25024;DHT22;13033;50.936;5.334;2023-07-20T09:15:09;22.30;99.90
25024;DHT22;13033;50.936;5.334;2023-07-20T09:17:35;22.30;1.00
25024;DHT22;13033;50.936;5.334;2023-07-20T09:20:07;22.20;71.60
25024;DHT22;13033;50.936;5.334;2023-07-20T09:22:37;22.10;99.90
25024;DHT22;13033;50.936;5.334;2023-07-20T09:25:13;22.10;99.90
25024;DHT22;13033;50.936;5.334;2023-07-20T09:27:41;22.40;59.40
25024;DHT22;13033;50.936;5.334;2023-07-20T09:30:07;22.60;99.90
25024;DHT22;13033;50.936;5.334;2023-07-20T09:32:48;22.50;1.00
25024;DHT22;13033;50.936;5.334;2023-07-20T09:35:18;22.50;1.10
25024;DHT22;13033;50.936;5.334;2023-07-20T09:38:00;22.90;99.90
25024;DHT22;13033;50.936;5.334;2023-07-20T09:40:26;23.40;1.00
25024;DHT22;13033;50.936;5.334;2023-07-20T09:42:54;23.30;1.00
25024;DHT22;13033;50.936;5.334;2023-07-20T09:45:29;22.90;99.90
25024;DHT22;13033;50.936;5.334;2023-07-20T09:48:04;22.80;1.00
25024;DHT22;13033;50.936;5.334;2023-07-20T09:50:30;22.50;1.00
25024;DHT22;13033;50.936;5.334;2023-07-20T09:52:56;22.60;99.90
25024;DHT22;13033;50.936;5.334;2023-07-20T09:55:23;22.90;1.00
25024;DHT22;13033;50.936;5.334;2023-07-20T09:57:50;22.80;99.90
25024;DHT22;13033;50.936;5.334;2023-07-20T10:00:19;22.80;1.00
25024;DHT22;13033;50.936;5.334;2023-07-20T10:02:46;23.20;99.90
25024;DHT22;13033;50.936;5.334;2023-07-20T10:05:13;23.20;99.90
25024;DHT22;13033;50.936;5.334;2023-07-20T10:07:50;23.10;1.00
25024;DHT22;13033;50.936;5.334;2023-07-20T10:10:17;23.40;99.90
25024;DHT22;13033;50.936;5.334;2023-07-20T10:12:46;23.50;99.90
25024;DHT22;13033;50.936;5.334;2023-07-20T10:18:31;23.90;99.90
25024;DHT22;13033;50.936;5.334;2023-07-20T10:21:00;23.50;99.90
25024;DHT22;13033;50.936;5.334;2023-07-20T10:23:29;23.60;99.90
25024;DHT22;13033;50.936;5.334;2023-07-20T10:25:56;23.50;99.90
25024;DHT22;13033;50.936;5.334;2023-07-20T10:28:23;23.60;99.90
25024;DHT22;13033;50.936;5.334;2023-07-20T10:30:50;23.70;99.90
25024;DHT22;13033;50.936;5.334;2023-07-20T10:33:17;24.00;35.10
25024;DHT22;13033;50.936;5.334;2023-07-20T10:38:18;24.40;99.90
25024;DHT22;13033;50.936;5.334;2023-07-20T10:40:54;24.30;1.00
25024;DHT22;13033;50.936;5.334;2023-07-20T10:43:20;24.40;99.90
25024;DHT22;13033;50.936;5.334;2023-07-20T10:45:53;24.30;99.90
25024;DHT22;13033;50.936;5.334;2023-07-20T10:48:21;24.00;1.00
25024;DHT22;13033;50.936;5.334;2023-07-20T10:51:22;23.50;99.90
25024;DHT22;13033;50.936;5.334;2023-07-20T10:53:49;23.70;99.90
25024;DHT22;13033;50.936;5.334;2023-07-20T10:56:19;23.90;1.00
25024;DHT22;13033;50.936;5.334;2023-07-20T10:58:45;24.10;39.20
25024;DHT22;13033;50.936;5.334;2023-07-20T11:01:17;23.90;99.90
25024;DHT22;13033;50.936;5.334;2023-07-20T11:03:43;24.10;1.00
25024;DHT22;13033;50.936;5.334;2023-07-20T11:06:30;24.00;1.00
25024;DHT22;13033;50.936;5.334;2023-07-20T11:09:11;24.10;1.00
25024;DHT22;13033;50.936;5.334;2023-07-20T11:11:38;24.40;1.00
25024;DHT22;13033;50.936;5.334;2023-07-20T11:14:25;24.10;1.00
25024;DHT22;13033;50.936;5.334;2023-07-20T11:16:52;24.40;1.00
25024;DHT22;13033;50.936;5.334;2023-07-20T11:21:50;24.80;99.90
25024;DHT22;13033;50.936;5.334;2023-07-20T11:24:16;25.10;99.90
25024;DHT22;13033;50.936;5.334;2023-07-20T11:26:47;25.30;99.90
25024;DHT22;13033;50.936;5.334;2023-07-20T11:29:14;25.20;60.20
25024;DHT22;13033;50.936;5.334;2023-07-20T11:31:43;25.00;6.50
25024;DHT22;13033;50.936;5.334;2023-07-20T11:34:12;24.90;1.00
25024;DHT22;13033;50.936;5.334;2023-07-20T11:36:40;24.80;54.70
25024;DHT22;13033;50.936;5.334;2023-07-20T11:39:10;25.10;1.00
25024;DHT22;13033;50.936;5.334;2023-07-20T11:41:36;25.30;1.00
25024;DHT22;13033;50.936;5.334;2023-07-20T11:44:02;25.40;1.00
25024;DHT22;13033;50.936;5.334;2023-07-20T11:46:28;25.20;1.00
25024;DHT22;13033;50.936;5.334;2023-07-20T11:48:58;25.50;1.00
25024;DHT22;13033;50.936;5.334;2023-07-20T11:51:31;25.30;1.00
25024;DHT22;13033;50.936;5.334;2023-07-20T11:53:57;25.40;1.00
25024;DHT22;13033;50.936;5.334;2023-07-20T11:56:24;25.80;1.00
25024;DHT22;13033;50.936;5.334;2023-07-20T11:58:53;26.30;1.00
25024;DHT22;13033;50.936;5.334;2023-07-20T12:01:19;26.10;1.00
25024;DHT22;13033;50.936;5.334;2023-07-20T12:03:47;26.40;1.00
25024;DHT22;13033;50.936;5.334;2023-07-20T12:06:13;26.00;1.00
25024;DHT22;13033;50.936;5.334;2023-07-20T12:08:43;25.80;1.00
25024;DHT22;13033;50.936;5.334;2023-07-20T12:11:09;25.90;99.90
25024;DHT22;13033;50.936;5.334;2023-07-20T12:13:44;25.90;99.90
25024;DHT22;13033;50.936;5.334;2023-07-20T12:16:14;25.90;99.90
25024;DHT22;13033;50.936;5.334;2023-07-20T12:18:44;26.20;99.90
25024;DHT22;13033;50.936;5.334;2023-07-20T12:21:10;26.50;99.90
25024;DHT22;13033;50.936;5.334;2023-07-20T12:23:37;26.40;99.90
25024;DHT22;13033;50.936;5.334;2023-07-20T12:26:06;26.20;99.90
25024;DHT22;13033;50.936;5.334;2023-07-20T12:28:32;26.40;99.90
25024;DHT22;13033;50.936;5.334;2023-07-20T12:30:58;26.30;99.90
25024;DHT22;13033;50.936;5.334;2023-07-20T12:33:24;26.50;99.90
25024;DHT22;13033;50.936;5.334;2023-07-20T12:35:50;26.80;99.90
25024;DHT22;13033;50.936;5.334;2023-07-20T12:38:16;26.90;99.90
25024;DHT22;13033;50.936;5.334;2023-07-20T12:40:42;26.80;99.90
25024;DHT22;13033;50.936;5.334;2023-07-20T12:43:08;26.50;99.90
25024;DHT22;13033;50.936;5.334;2023-07-20T12:45:34;26.40;99.90
25024;DHT22;13033;50.936;5.334;2023-07-20T12:47:59;25.90;99.90
25024;DHT22;13033;50.936;5.334;2023-07-20T12:50:26;26.10;99.90
25024;DHT22;13033;50.936;5.334;2023-07-20T12:52:52;26.30;99.90
25024;DHT22;13033;50.936;5.334;2023-07-20T12:55:17;26.60;99.90
25024;DHT22;13033;50.936;5.334;2023-07-20T12:57:43;27.20;99.90
25024;DHT22;13033;50.936;5.334;2023-07-20T13:00:10;26.90;99.90
25024;DHT22;13033;50.936;5.334;2023-07-20T13:02:37;26.60;99.90
25024;DHT22;13033;50.936;5.334;2023-07-20T13:05:03;26.70;99.90
25024;DHT22;13033;50.936;5.334;2023-07-20T13:07:34;26.40;99.90
25024;DHT22;13033;50.936;5.334;2023-07-20T13:10:01;26.40;99.90
25024;DHT22;13033;50.936;5.334;2023-07-20T13:12:28;26.30;99.90
25024;DHT22;13033;50.936;5.334;2023-07-20T13:14:55;26.20;99.90
25024;DHT22;13033;50.936;5.334;2023-07-20T13:17:22;26.20;99.90
25024;DHT22;13033;50.936;5.334;2023-07-20T13:19:47;26.40;99.90
25024;DHT22;13033;50.936;5.334;2023-07-20T13:22:13;26.50;99.90
25024;DHT22;13033;50.936;5.334;2023-07-20T13:24:44;26.20;99.90
25024;DHT22;13033;50.936;5.334;2023-07-20T13:27:10;26.20;99.90
25024;DHT22;13033;50.936;5.334;2023-07-20T13:29:35;26.10;99.90
25024;DHT22;13033;50.936;5.334;2023-07-20T13:32:02;26.10;99.90
25024;DHT22;13033;50.936;5.334;2023-07-20T13:34:29;26.20;99.90
25024;DHT22;13033;50.936;5.334;2023-07-20T13:36:55;26.50;99.90
25024;DHT22;13033;50.936;5.334;2023-07-20T13:39:20;26.60;99.90
25024;DHT22;13033;50.936;5.334;2023-07-20T13:41:49;26.40;99.90
25024;DHT22;13033;50.936;5.334;2023-07-20T13:44:15;26.20;99.90
25024;DHT22;13033;50.936;5.334;2023-07-20T13:46:40;26.20;99.90
25024;DHT22;13033;50.936;5.334;2023-07-20T13:49:06;26.50;99.90
25024;DHT22;13033;50.936;5.334;2023-07-20T13:51:32;27.20;99.90
25024;DHT22;13033;50.936;5.334;2023-07-20T13:53:57;27.70;96.70
25024;DHT22;13033;50.936;5.334;2023-07-20T13:56:24;28.00;60.90
25024;DHT22;13033;50.936;5.334;2023-07-20T13:58:50;28.00;33.70
25024;DHT22;13033;50.936;5.334;2023-07-20T14:01:16;28.40;13.30
25024;DHT22;13033;50.936;5.334;2023-07-20T14:03:43;28.30;1.00
25024;DHT22;13033;50.936;5.334;2023-07-20T14:06:09;28.50;1.00
25024;DHT22;13033;50.936;5.334;2023-07-20T14:08:34;28.90;1.00
25024;DHT22;13033;50.936;5.334;2023-07-20T14:11:00;29.10;1.00
25024;DHT22;13033;50.936;5.334;2023-07-20T14:13:26;30.20;1.00
25024;DHT22;13033;50.936;5.334;2023-07-20T14:15:53;30.70;1.00
25024;DHT22;13033;50.936;5.334;2023-07-20T14:18:18;30.60;1.00
25024;DHT22;13033;50.936;5.334;2023-07-20T14:20:44;30.20;1.00
25024;DHT22;13033;50.936;5.334;2023-07-20T14:23:09;30.60;1.00
25024;DHT22;13033;50.936;5.334;2023-07-20T14:25:35;30.70;1.00
25024;DHT22;13033;50.936;5.334;2023-07-20T14:28:01;30.30;1.00
25024;DHT22;13033;50.936;5.334;2023-07-20T14:30:26;30.50;1.00
25024;DHT22;13033;50.936;5.334;2023-07-20T14:32:52;30.60;1.00
25024;DHT22;13033;50.936;5.334;2023-07-20T14:35:18;31.20;1.00
25024;DHT22;13033;50.936;5.334;2023-07-20T14:37:44;31.30;1.00
25024;DHT22;13033;50.936;5.334;2023-07-20T14:40:12;30.70;1.00
25024;DHT22;13033;50.936;5.334;2023-07-20T14:42:38;30.40;1.00
25024;DHT22;13033;50.936;5.334;2023-07-20T14:45:05;30.00;1.00
25024;DHT22;13033;50.936;5.334;2023-07-20T14:47:31;29.40;1.00
25024;DHT22;13033;50.936;5.334;2023-07-20T14:50:04;29.90;1.00
25024;DHT22;13033;50.936;5.334;2023-07-20T14:52:30;30.00;1.00
25024;DHT22;13033;50.936;5.334;2023-07-20T14:54:56;30.60;1.00
25024;DHT22;13033;50.936;5.334;2023-07-20T14:57:21;30.30;1.00
25024;DHT22;13033;50.936;5.334;2023-07-20T14:59:52;30.40;1.00
25024;DHT22;13033;50.936;5.334;2023-07-20T15:02:18;30.10;1.00
25024;DHT22;13033;50.936;5.334;2023-07-20T15:04:50;30.30;1.00
25024;DHT22;13033;50.936;5.334;2023-07-20T15:07:20;30.40;1.00
25024;DHT22;13033;50.936;5.334;2023-07-20T15:09:49;30.10;1.00
25024;DHT22;13033;50.936;5.334;2023-07-20T15:12:15;29.60;1.00
25024;DHT22;13033;50.936;5.334;2023-07-20T15:14:42;28.90;1.00
25024;DHT22;13033;50.936;5.334;2023-07-20T15:17:09;28.50;1.00
25024;DHT22;13033;50.936;5.334;2023-07-20T15:19:34;28.10;1.00
25024;DHT22;13033;50.936;5.334;2023-07-20T15:22:01;27.80;1.00
25024;DHT22;13033;50.936;5.334;2023-07-20T15:24:28;27.50;1.00
25024;DHT22;13033;50.936;5.334;2023-07-20T15:26:54;27.20;1.00
25024;DHT22;13033;50.936;5.334;2023-07-20T15:29:20;26.90;1.00
25024;DHT22;13033;50.936;5.334;2023-07-20T15:31:46;26.80;1.00
25024;DHT22;13033;50.936;5.334;2023-07-20T15:34:12;26.60;1.00
25024;DHT22;13033;50.936;5.334;2023-07-20T15:36:39;26.10;1.00
25024;DHT22;13033;50.936;5.334;2023-07-20T15:39:06;26.00;1.00
25024;DHT22;13033;50.936;5.334;2023-07-20T15:41:32;25.80;1.00
25024;DHT22;13033;50.936;5.334;2023-07-20T15:43:57;25.80;1.00
25024;DHT22;13033;50.936;5.334;2023-07-20T15:48:48;25.70;25.50
25024;DHT22;13033;50.936;5.334;2023-07-20T15:51:14;25.60;44.90
25024;DHT22;13033;50.936;5.334;2023-07-20T15:53:40;25.70;56.90